createdAt,value
2024-02-13T00:01:31.745Z,17.42
2024-02-13T00:04:01.066Z,18.10
2024-02-13T00:06:30.469Z,26.57
2024-02-13T00:08:59.781Z,15.83
2024-02-13T00:11:29.247Z,22.60
2024-02-13T00:13:58.681Z,15.03
2024-02-13T00:16:27.996Z,15.23
2024-02-13T00:18:58.966Z,16.32
2024-02-13T00:21:29.017Z,17.27
2024-02-13T00:23:58.798Z,16.60
2024-02-13T00:26:28.490Z,21.87
2024-02-13T00:28:57.803Z,16.60
2024-02-13T00:31:27.860Z,19.15
2024-02-13T00:33:57.192Z,14.05
2024-02-13T00:36:26.508Z,20.72
2024-02-13T00:38:56.911Z,21.57
2024-02-13T00:41:27.423Z,19.75
2024-02-13T00:43:56.755Z,19.35
2024-02-13T00:46:26.043Z,16.60
2024-02-13T00:48:57.105Z,16.42
2024-02-13T00:51:27.896Z,18.10
2024-02-13T00:53:57.427Z,15.43
2024-02-13T00:56:26.767Z,20.43
2024-02-13T00:58:59.289Z,19.85
2024-02-13T01:01:29.116Z,21.12
2024-02-13T01:03:58.498Z,20.08
2024-02-13T01:06:28.692Z,18.42
2024-02-13T01:08:58.131Z,16.62
2024-02-13T01:11:27.524Z,16.37
2024-02-13T01:13:57.659Z,16.85
2024-02-13T01:16:26.946Z,14.93
2024-02-13T01:18:56.941Z,19.15
2024-02-13T01:21:26.320Z,15.20
2024-02-13T01:23:55.617Z,15.85
2024-02-13T01:26:24.885Z,18.42
2024-02-13T01:28:54.276Z,15.98
2024-02-13T01:31:23.528Z,24.47
2024-02-13T01:33:52.924Z,19.02
2024-02-13T01:36:22.294Z,20.00
2024-02-13T01:38:51.932Z,15.65
2024-02-13T01:41:21.762Z,15.68
2024-02-13T01:43:51.331Z,18.12
2024-02-13T01:46:21.945Z,17.95
2024-02-13T01:48:51.384Z,16.77
2024-02-13T01:51:20.664Z,17.73
2024-02-13T01:53:50.031Z,22.70
2024-02-13T01:56:21.066Z,16.85
2024-02-13T01:58:51.600Z,20.27
2024-02-13T02:01:21.559Z,18.32
2024-02-13T02:03:51.730Z,23.55
2024-02-13T02:06:21.141Z,21.40
2024-02-13T02:08:50.656Z,17.92
2024-02-13T02:11:20.041Z,20.12
2024-02-13T02:13:50.655Z,17.80
2024-02-13T02:16:19.991Z,21.23
2024-02-13T02:18:49.367Z,27.00
2024-02-13T02:21:18.766Z,22.35
2024-02-13T02:23:48.108Z,23.60
2024-02-13T02:26:17.445Z,16.27
2024-02-13T02:28:47.675Z,22.73
2024-02-13T02:31:17.232Z,17.17
2024-02-13T02:33:47.744Z,19.40
2024-02-13T02:36:17.733Z,17.85
2024-02-13T02:38:47.077Z,14.60
2024-02-13T02:41:16.564Z,22.45
2024-02-13T02:43:46.032Z,16.15
2024-02-13T02:46:15.335Z,19.52
2024-02-13T02:48:44.764Z,20.37
2024-02-13T02:51:14.090Z,23.83
2024-02-13T02:53:43.748Z,17.35
2024-02-13T02:56:14.728Z,16.73
2024-02-13T02:58:44.562Z,19.87
2024-02-13T03:01:14.883Z,20.90
2024-02-13T03:03:44.319Z,15.95
2024-02-13T03:06:14.735Z,18.60
2024-02-13T03:08:45.470Z,13.78
2024-02-13T03:11:14.808Z,14.40
2024-02-13T03:13:44.972Z,18.95
2024-02-13T03:16:14.412Z,20.50
2024-02-13T03:18:43.819Z,16.30
2024-02-13T03:21:13.207Z,18.50
2024-02-13T03:23:44.464Z,20.00
2024-02-13T03:26:13.888Z,15.32
2024-02-13T03:28:43.143Z,17.80
2024-02-13T03:31:12.531Z,15.25
2024-02-13T03:33:41.966Z,15.28
2024-02-13T03:36:12.326Z,26.10
2024-02-13T03:38:43.368Z,20.15
2024-02-13T03:41:12.619Z,20.15
2024-02-13T03:43:45.994Z,23.25
2024-02-13T03:46:16.227Z,15.10
2024-02-13T03:48:45.680Z,14.80
2024-02-13T03:51:15.063Z,19.87
2024-02-13T03:53:44.713Z,22.62
2024-02-13T03:56:14.012Z,18.67
2024-02-13T03:58:43.449Z,17.40
2024-02-13T04:01:12.710Z,22.48
2024-02-13T04:03:42.056Z,19.52
2024-02-13T04:06:13.219Z,20.30
2024-02-13T04:08:44.504Z,15.38
2024-02-13T04:11:14.262Z,15.35
2024-02-13T04:13:43.623Z,14.83
2024-02-13T04:16:13.692Z,16.50
2024-02-13T04:18:43.140Z,18.12
2024-02-13T04:21:18.520Z,15.03
2024-02-13T04:23:49.901Z,20.08
2024-02-13T04:26:30.277Z,14.63
2024-02-13T04:28:50.458Z,16.70
2024-02-13T04:31:19.820Z,22.87
2024-02-13T04:33:49.319Z,17.45
2024-02-13T04:36:19.205Z,21.93
2024-02-13T04:38:48.806Z,25.45
2024-02-13T04:41:20.627Z,16.02
2024-02-13T04:43:51.098Z,19.23
2024-02-13T04:46:20.727Z,12.37
2024-02-13T04:48:50.107Z,15.18
2024-02-13T04:51:19.615Z,16.70
2024-02-13T04:53:49.169Z,22.27
2024-02-13T04:56:18.829Z,20.10
2024-02-13T04:58:48.509Z,12.25
2024-02-13T05:01:17.913Z,14.58
2024-02-13T05:03:51.784Z,13.13
2024-02-13T05:06:38.915Z,14.95
2024-02-13T05:09:08.216Z,13.38
2024-02-13T05:11:37.562Z,18.12
2024-02-13T05:14:07.956Z,12.55
2024-02-13T05:16:39.565Z,10.43
2024-02-13T05:19:09.887Z,14.80
2024-02-13T05:21:40.305Z,17.42
2024-02-13T05:24:10.800Z,7.55
2024-02-13T05:26:40.376Z,16.50
2024-02-13T05:29:09.827Z,12.33
2024-02-13T05:31:39.093Z,11.28
2024-02-13T05:34:10.081Z,15.63
2024-02-13T05:36:39.457Z,9.13
2024-02-13T05:39:09.196Z,12.73
2024-02-13T05:41:38.856Z,13.18
2024-02-13T05:44:08.606Z,10.20
2024-02-13T05:46:38.403Z,11.22
2024-02-13T05:49:07.739Z,13.43
2024-02-13T05:51:37.160Z,10.72
2024-02-13T05:54:07.144Z,12.10
2024-02-13T05:56:36.622Z,14.18
2024-02-13T05:59:06.766Z,8.65
2024-02-13T06:01:36.167Z,14.75
2024-02-13T06:04:07.714Z,11.93
2024-02-13T06:06:41.593Z,9.38
2024-02-13T06:09:10.944Z,8.33
2024-02-13T06:11:40.273Z,9.53
2024-02-13T06:14:09.708Z,11.28
2024-02-13T06:16:38.990Z,13.38
2024-02-13T06:19:08.422Z,9.48
2024-02-13T06:21:38.096Z,16.30
2024-02-13T06:24:07.796Z,7.78
2024-02-13T06:26:38.674Z,5.40
2024-02-13T06:29:09.336Z,15.28
2024-02-13T06:31:38.786Z,9.15
2024-02-13T06:34:08.164Z,11.70
2024-02-13T06:36:37.565Z,13.08
2024-02-13T06:39:06.953Z,12.15
2024-02-13T06:41:36.251Z,8.30
2024-02-13T06:44:06.998Z,11.57
2024-02-13T06:46:36.266Z,8.48
2024-02-13T06:49:05.727Z,8.28
2024-02-13T06:51:35.639Z,12.63
2024-02-13T06:54:05.348Z,8.18
2024-02-13T06:56:36.399Z,10.23
2024-02-13T06:59:07.400Z,9.03
2024-02-13T07:01:37.240Z,10.75
2024-02-13T07:04:07.665Z,11.57
2024-02-13T07:06:47.896Z,10.43
2024-02-13T07:09:08.340Z,8.40
2024-02-13T07:11:37.832Z,12.15
2024-02-13T07:14:07.394Z,9.93
2024-02-13T07:16:41.208Z,9.18
2024-02-13T07:19:11.546Z,7.30
2024-02-13T07:21:41.078Z,11.48
2024-02-13T07:24:11.745Z,11.57
2024-02-13T07:26:41.017Z,8.53
2024-02-13T07:29:11.866Z,10.38
2024-02-13T07:31:41.185Z,9.95
2024-02-13T07:34:10.725Z,12.65
2024-02-13T07:36:40.228Z,10.70
2024-02-13T07:39:11.149Z,9.33
2024-02-13T07:41:40.695Z,20.27
2024-02-13T07:44:10.060Z,8.25
2024-02-13T07:46:39.423Z,7.42
2024-02-13T07:49:09.697Z,18.95
2024-02-13T07:51:39.115Z,9.58
2024-02-13T07:54:08.408Z,7.15
2024-02-13T07:56:39.394Z,6.10
2024-02-13T07:59:10.585Z,10.28
2024-02-13T08:01:39.881Z,7.83
2024-02-13T08:04:09.244Z,9.53
2024-02-13T08:06:39.855Z,11.68
2024-02-13T08:09:09.946Z,11.28
2024-02-13T08:11:40.149Z,9.73
2024-02-13T08:14:11.518Z,7.65
2024-02-13T08:16:41.393Z,10.75
2024-02-13T08:19:11.694Z,7.97
2024-02-13T08:21:41.097Z,6.15
2024-02-13T08:24:11.069Z,6.65
2024-02-13T08:26:40.381Z,5.50
2024-02-13T08:29:10.435Z,5.15
2024-02-13T08:31:39.739Z,5.83
2024-02-13T08:34:09.409Z,6.10
2024-02-13T08:36:40.235Z,12.15
2024-02-13T08:39:11.202Z,15.28
2024-02-13T08:41:40.538Z,8.40
2024-02-13T08:44:10.527Z,5.70
2024-02-13T08:46:39.829Z,9.93
2024-02-13T08:49:09.450Z,12.18
2024-02-13T08:51:39.061Z,6.70
2024-02-13T08:54:10.229Z,5.08
2024-02-13T08:56:41.281Z,9.73
2024-02-13T08:59:11.146Z,7.30
2024-02-13T09:01:41.966Z,6.03
2024-02-13T09:04:13.555Z,8.70
2024-02-13T09:06:43.146Z,7.30
2024-02-13T09:09:14.012Z,5.00
2024-02-13T09:11:43.822Z,6.90
2024-02-13T09:14:14.523Z,10.00
2024-02-13T09:16:43.901Z,7.90
2024-02-13T09:19:13.351Z,11.60
2024-02-13T09:21:44.741Z,4.97
2024-02-13T09:26:44.848Z,7.55
2024-02-13T09:29:14.216Z,5.90
2024-02-13T09:31:46.433Z,7.12
2024-02-13T09:34:16.309Z,6.40
2024-02-13T09:36:45.820Z,5.03
2024-02-13T09:39:15.720Z,9.10
2024-02-13T09:41:45.169Z,4.95
2024-02-13T09:44:15.993Z,7.60
2024-02-13T09:46:45.758Z,6.92
2024-02-13T09:49:15.424Z,4.12
2024-02-13T09:51:47.700Z,6.87
2024-02-13T09:54:19.205Z,3.30
2024-02-13T09:56:48.678Z,4.33
2024-02-13T09:59:18.404Z,5.72
2024-02-13T10:01:48.077Z,4.33
2024-02-13T10:04:17.353Z,5.62
2024-02-13T10:06:46.843Z,4.72
2024-02-13T10:09:16.919Z,7.87
2024-02-13T10:11:47.916Z,8.18
2024-02-13T10:14:22.444Z,8.20
2024-02-13T10:16:51.839Z,9.53
2024-02-13T10:19:22.656Z,8.08
2024-02-13T10:21:52.779Z,5.35
2024-02-13T10:24:24.980Z,6.67
2024-02-13T10:26:55.041Z,4.87
2024-02-13T10:29:24.416Z,5.70
2024-02-13T10:31:55.430Z,3.58
2024-02-13T10:34:24.689Z,4.72
2024-02-13T10:36:54.253Z,7.90
2024-02-13T10:39:25.775Z,6.78
2024-02-13T10:41:58.621Z,3.85
2024-02-13T10:44:30.185Z,5.95
2024-02-13T10:47:01.309Z,6.75
2024-02-13T10:49:51.596Z,5.37
2024-02-13T10:52:24.712Z,4.58
2024-02-13T10:54:54.871Z,6.33
2024-02-13T10:57:24.638Z,6.42
2024-02-13T10:59:54.380Z,5.62
2024-02-13T11:02:24.012Z,5.97
2024-02-13T11:04:54.268Z,5.58
2024-02-13T11:07:23.631Z,6.92
2024-02-13T11:09:54.474Z,11.25
2024-02-13T11:12:24.164Z,5.35
2024-02-13T11:14:53.496Z,4.30
2024-02-13T11:17:24.725Z,5.60
2024-02-13T11:19:58.115Z,7.37
2024-02-13T11:22:38.794Z,7.58
2024-02-13T11:25:10.756Z,3.92
2024-02-13T11:27:45.412Z,7.87
2024-02-13T11:30:27.469Z,8.40
2024-02-13T11:33:02.902Z,5.97
2024-02-13T11:35:42.954Z,8.50
2024-02-13T11:38:13.755Z,6.03
2024-02-13T11:40:45.151Z,5.72
2024-02-13T11:43:21.821Z,4.87
2024-02-13T11:45:51.672Z,6.20
2024-02-13T11:48:23.127Z,5.40
2024-02-13T11:50:52.566Z,6.25
2024-02-13T11:53:22.075Z,5.85
2024-02-13T11:55:52.911Z,3.45
2024-02-13T11:58:23.586Z,2.98
2024-02-13T12:01:06.672Z,5.78
2024-02-13T12:03:37.031Z,7.75
2024-02-13T12:06:07.474Z,3.15
2024-02-13T12:08:40.117Z,3.65
2024-02-13T12:11:10.199Z,3.75
2024-02-13T12:13:40.183Z,4.33
2024-02-13T12:16:10.566Z,2.95
2024-02-13T12:18:41.133Z,3.75
2024-02-13T12:21:12.879Z,4.83
2024-02-13T12:23:50.392Z,9.35
2024-02-13T12:26:19.857Z,4.35
2024-02-13T12:28:59.428Z,4.15
2024-02-13T12:31:31.018Z,4.15
2024-02-13T12:34:08.174Z,2.80
2024-02-13T12:36:39.582Z,3.37
2024-02-13T12:39:16.839Z,2.65
2024-02-13T12:41:47.001Z,5.85
2024-02-13T12:44:16.718Z,5.47
2024-02-13T12:46:47.113Z,4.70
2024-02-13T12:49:18.081Z,7.10
2024-02-13T12:51:47.985Z,2.42
2024-02-13T12:54:17.349Z,4.00
2024-02-13T12:56:47.940Z,3.02
2024-02-13T12:59:18.924Z,1.95
2024-02-13T13:01:48.403Z,4.33
2024-02-13T13:04:18.145Z,3.05
2024-02-13T13:06:48.157Z,6.35
2024-02-13T13:09:26.361Z,3.67
2024-02-13T13:11:50.496Z,3.45
2024-02-13T13:14:21.627Z,3.08
2024-02-13T13:16:52.745Z,2.55
2024-02-13T13:19:24.167Z,3.02
2024-02-13T13:21:54.261Z,3.27
2024-02-13T13:24:24.244Z,2.90
2024-02-13T13:26:54.954Z,4.22
2024-02-13T13:29:24.588Z,2.60
2024-02-13T13:31:53.973Z,2.12
2024-02-13T13:34:25.247Z,3.47
2024-02-13T13:36:56.466Z,4.80
2024-02-13T13:39:27.502Z,3.05
2024-02-13T13:41:59.134Z,3.72
2024-02-13T13:44:29.993Z,3.05
2024-02-13T13:46:59.347Z,3.67
2024-02-13T13:49:28.649Z,5.47
2024-02-13T13:51:57.927Z,2.12
2024-02-13T13:54:27.216Z,3.02
2024-02-13T13:56:57.220Z,3.58
2024-02-13T13:59:26.666Z,5.85
2024-02-13T14:01:57.617Z,2.55
2024-02-13T14:04:27.595Z,5.00
2024-02-13T14:06:57.006Z,6.95
2024-02-13T14:09:26.409Z,2.25
2024-02-13T14:11:55.840Z,2.77
2024-02-13T14:14:25.249Z,2.45
2024-02-13T14:16:55.774Z,3.22
2024-02-13T14:19:25.370Z,2.72
2024-02-13T14:21:54.748Z,2.02
2024-02-13T14:24:24.069Z,2.90
2024-02-13T14:26:53.556Z,2.25
2024-02-13T14:29:23.588Z,2.65
2024-02-13T14:31:53.080Z,2.37
2024-02-13T14:34:24.079Z,3.20
2024-02-13T14:36:53.546Z,3.52
2024-02-13T14:39:23.186Z,2.17
2024-02-13T14:41:54.172Z,6.37
2024-02-13T14:44:23.539Z,1.87
2024-02-13T14:46:55.344Z,2.65
2024-02-13T14:49:26.447Z,2.77
2024-02-13T14:51:56.033Z,7.03
2024-02-13T14:54:25.385Z,3.30
2024-02-13T14:56:54.885Z,5.35
2024-02-13T14:59:26.277Z,3.55
2024-02-13T15:01:56.195Z,3.72
2024-02-13T15:04:25.653Z,3.05
2024-02-13T15:06:54.988Z,2.87
2024-02-13T15:09:24.274Z,3.58
2024-02-13T15:11:53.703Z,3.90
2024-02-13T15:14:24.006Z,3.00
2024-02-13T15:16:53.732Z,6.85
2024-02-13T15:19:26.570Z,3.77
2024-02-13T15:24:25.359Z,3.90
2024-02-13T15:26:55.281Z,4.40
2024-02-13T15:29:25.539Z,3.37
2024-02-13T15:31:55.284Z,4.20
2024-02-13T15:34:24.721Z,3.27
2024-02-13T15:37:07.509Z,6.85
2024-02-13T15:39:54.786Z,3.40
2024-02-13T15:42:44.781Z,3.70
2024-02-13T15:45:31.586Z,5.70
2024-02-13T15:48:01.359Z,3.62
2024-02-13T15:50:30.806Z,4.55
2024-02-13T15:53:01.168Z,5.80
2024-02-13T15:55:31.587Z,6.62
2024-02-13T15:58:01.103Z,4.20
2024-02-13T16:00:31.812Z,4.70
2024-02-13T16:03:04.501Z,3.72
2024-02-13T16:05:35.294Z,3.33
2024-02-13T16:08:06.451Z,6.53
2024-02-13T16:10:36.022Z,6.67
2024-02-13T16:13:05.662Z,6.95
2024-02-13T16:15:35.962Z,5.05
2024-02-13T16:18:05.662Z,7.40
2024-02-13T16:20:35.132Z,6.20
2024-02-13T16:23:05.803Z,4.45
2024-02-13T16:25:35.869Z,4.60
2024-02-13T16:28:06.924Z,8.55
2024-02-13T16:30:37.007Z,4.28
2024-02-13T16:33:08.173Z,6.40
2024-02-13T16:35:37.805Z,4.90
2024-02-13T16:38:07.129Z,3.45
2024-02-13T16:40:36.760Z,5.20
2024-02-13T16:43:06.165Z,4.80
2024-02-13T16:45:35.590Z,3.72
2024-02-13T16:48:05.537Z,4.87
2024-02-13T16:50:35.087Z,4.47
2024-02-13T16:53:05.827Z,8.03
2024-02-13T16:55:36.774Z,8.15
2024-02-13T16:58:07.263Z,8.98
2024-02-13T17:00:36.987Z,5.50
2024-02-13T17:03:08.399Z,6.62
2024-02-13T17:05:39.570Z,7.15
2024-02-13T17:08:10.700Z,13.62
2024-02-13T17:10:40.106Z,8.18
2024-02-13T17:13:09.780Z,9.23
2024-02-13T17:15:39.122Z,7.85
2024-02-13T17:18:08.472Z,8.48
2024-02-13T17:20:37.864Z,10.13
2024-02-13T17:23:09.282Z,7.65
2024-02-13T17:25:38.690Z,7.83
2024-02-13T17:28:08.094Z,7.25
2024-02-13T17:30:37.441Z,5.80
2024-02-13T17:33:06.998Z,7.67
2024-02-13T17:35:36.372Z,10.03
2024-02-13T17:38:06.019Z,5.35
2024-02-13T17:40:35.282Z,6.75
2024-02-13T17:43:06.062Z,7.50
2024-02-13T17:45:36.207Z,7.35
2024-02-13T17:48:05.814Z,7.83
2024-02-13T17:50:35.092Z,5.47
2024-02-13T17:53:04.491Z,8.45
2024-02-13T17:55:35.299Z,6.67
2024-02-13T17:58:04.995Z,6.05
2024-02-13T18:00:35.831Z,8.03
2024-02-13T18:03:05.566Z,7.10
2024-02-13T18:05:34.997Z,7.90
2024-02-13T18:08:05.401Z,4.67
2024-02-13T18:10:34.985Z,6.72
2024-02-13T18:13:06.066Z,9.55
2024-02-13T18:15:35.452Z,8.45
2024-02-13T18:18:06.669Z,6.35
2024-02-13T18:20:36.971Z,4.75
2024-02-13T18:23:08.011Z,7.22
2024-02-13T18:25:37.674Z,9.03
2024-02-13T18:28:07.308Z,9.85
2024-02-13T18:30:36.752Z,6.15
2024-02-13T18:33:10.922Z,9.13
2024-02-13T18:35:42.378Z,6.22
2024-02-13T18:38:11.748Z,12.98
2024-02-13T18:40:41.107Z,12.30
2024-02-13T18:43:10.378Z,8.45
2024-02-13T18:45:39.742Z,6.95
2024-02-13T18:48:09.452Z,8.88
2024-02-13T18:50:39.940Z,7.28
2024-02-13T18:53:09.473Z,7.80
2024-02-13T18:55:38.745Z,7.70
2024-02-13T18:58:08.656Z,9.63
2024-02-13T19:00:38.728Z,5.12
2024-02-13T19:03:08.966Z,8.35
2024-02-13T19:05:41.726Z,8.90
2024-02-13T19:08:11.545Z,17.00
2024-02-13T19:10:41.760Z,28.38
2024-02-13T19:13:11.026Z,14.70
2024-02-13T19:15:40.345Z,26.68
2024-02-13T19:18:16.856Z,20.17
2024-02-13T19:20:46.345Z,28.50
2024-02-13T19:23:17.591Z,15.68
2024-02-13T19:25:47.788Z,19.30
2024-02-13T19:28:18.109Z,8.23
2024-02-13T19:30:49.210Z,7.80
2024-02-13T19:33:19.151Z,12.98
2024-02-13T19:35:49.806Z,11.80
2024-02-13T19:38:20.436Z,9.30
2024-02-13T19:40:51.833Z,7.85
2024-02-13T19:43:21.317Z,8.98
2024-02-13T19:45:50.720Z,5.83
2024-02-13T19:48:20.343Z,6.40
2024-02-13T19:50:49.689Z,5.47
2024-02-13T19:53:19.099Z,6.87
2024-02-13T19:55:48.365Z,5.35
2024-02-13T19:58:17.621Z,9.05
2024-02-13T20:00:46.997Z,4.80
2024-02-13T20:03:16.356Z,6.60
2024-02-13T20:05:45.853Z,7.05
2024-02-13T20:08:15.926Z,5.00
2024-02-13T20:10:49.202Z,5.05
2024-02-13T20:13:19.107Z,5.80
2024-02-13T20:15:48.678Z,4.87
2024-02-13T20:18:20.240Z,6.65
2024-02-13T20:20:49.851Z,7.42
2024-02-13T20:23:19.930Z,6.28
2024-02-13T20:25:50.382Z,6.45
2024-02-13T20:28:20.031Z,5.62
2024-02-13T20:30:49.326Z,6.17
2024-02-13T20:33:19.603Z,4.65
2024-02-13T20:36:01.186Z,2.80
2024-02-13T20:38:31.660Z,4.97
2024-02-13T20:41:00.987Z,5.80
2024-02-13T20:43:30.407Z,7.62
2024-02-13T20:45:59.723Z,7.78
2024-02-13T20:48:29.866Z,5.78
2024-02-13T20:50:59.189Z,7.95
2024-02-13T20:53:28.974Z,3.75
2024-02-13T20:55:59.984Z,5.45
2024-02-13T20:58:32.174Z,5.65
2024-02-13T21:01:02.105Z,5.72
2024-02-13T21:03:31.671Z,5.35
2024-02-13T21:06:01.228Z,5.62
2024-02-13T21:08:30.744Z,4.87
2024-02-13T21:11:00.113Z,6.95
2024-02-13T21:13:29.456Z,5.83
2024-02-13T21:15:59.145Z,5.35
2024-02-13T21:18:28.606Z,5.33
2024-02-13T21:21:11.542Z,12.37
2024-02-13T21:23:42.587Z,7.83
2024-02-13T21:26:11.902Z,7.87
2024-02-13T21:28:41.317Z,8.43
2024-02-13T21:31:10.682Z,10.58
2024-02-13T21:33:40.141Z,12.53
2024-02-13T21:36:10.790Z,9.08
2024-02-13T21:38:40.194Z,6.90
2024-02-13T21:41:10.116Z,7.72
2024-02-13T21:43:39.538Z,5.87
2024-02-13T21:46:09.140Z,6.08
2024-02-13T21:48:38.603Z,6.75
2024-02-13T21:51:08.233Z,4.55
2024-02-13T21:53:38.069Z,3.85
2024-02-13T21:56:07.761Z,9.20
2024-02-13T21:58:37.457Z,7.62
2024-02-13T22:01:07.022Z,6.30
2024-02-13T22:03:36.733Z,6.17
2024-02-13T22:06:06.812Z,5.50
2024-02-13T22:08:36.345Z,6.75
2024-02-13T22:11:05.752Z,4.90
2024-02-13T22:13:35.073Z,6.03
2024-02-13T22:16:05.357Z,6.28
2024-02-13T22:18:34.708Z,8.90
2024-02-13T22:21:04.290Z,4.85
2024-02-13T22:23:34.273Z,6.85
2024-02-13T22:26:06.438Z,4.97
2024-02-13T22:28:35.761Z,6.58
2024-02-13T22:31:06.388Z,4.60
2024-02-13T22:33:35.986Z,3.33
2024-02-13T22:36:06.683Z,5.47
2024-02-13T22:38:36.108Z,7.90
2024-02-13T22:41:05.946Z,5.75
2024-02-13T22:43:35.334Z,5.42
2024-02-13T22:46:04.938Z,4.80
2024-02-13T22:48:34.994Z,6.12
2024-02-13T22:51:04.521Z,5.70
2024-02-13T22:53:33.840Z,5.70
2024-02-13T22:56:04.875Z,7.03
2024-02-13T22:58:34.171Z,7.25
2024-02-13T23:01:04.074Z,8.03
2024-02-13T23:03:34.069Z,5.90
2024-02-13T23:06:05.560Z,6.08
2024-02-13T23:08:35.986Z,7.83
2024-02-13T23:11:07.081Z,5.62
2024-02-13T23:13:42.440Z,8.95
2024-02-13T23:16:08.325Z,4.65
2024-02-13T23:18:38.384Z,6.85
2024-02-13T23:21:08.173Z,8.55
2024-02-13T23:23:37.674Z,8.50
2024-02-13T23:26:07.573Z,7.20
2024-02-13T23:28:48.314Z,8.58
2024-02-13T23:31:08.639Z,6.92
2024-02-13T23:33:39.478Z,8.23
2024-02-13T23:36:10.127Z,8.23
2024-02-13T23:38:39.632Z,7.47
2024-02-13T23:41:08.969Z,7.03
2024-02-13T23:43:38.282Z,9.58
2024-02-13T23:46:08.331Z,7.62
2024-02-13T23:48:38.416Z,10.43
2024-02-13T23:51:08.047Z,9.75
2024-02-13T23:53:37.800Z,13.25
2024-02-13T23:56:07.825Z,14.98
2024-02-13T23:58:37.260Z,6.75
